createdAt,value
2018-06-13T00:02:01.000Z,5.23
2018-06-13T00:04:29.460Z,5.00
2018-06-13T00:06:57.864Z,4.40
2018-06-13T00:09:26.278Z,3.57
2018-06-13T00:11:54.761Z,3.93
2018-06-13T00:14:23.277Z,5.20
2018-06-13T00:16:51.738Z,4.77
2018-06-13T00:19:20.185Z,4.60
2018-06-13T00:21:48.603Z,4.93
2018-06-13T00:24:17.076Z,5.00
2018-06-13T00:26:45.508Z,5.20
2018-06-13T00:29:14.072Z,4.63
2018-06-13T00:31:42.532Z,5.07
2018-06-13T00:34:10.956Z,5.13
2018-06-13T00:36:39.379Z,6.30
2018-06-13T00:39:07.767Z,5.30
2018-06-13T00:41:36.221Z,5.93
2018-06-13T00:44:04.925Z,4.93
2018-06-13T00:46:33.628Z,4.70
2018-06-13T00:49:02.064Z,5.20
2018-06-13T00:51:30.505Z,17.80
2018-06-13T00:53:58.957Z,5.23
2018-06-13T00:56:32.367Z,6.00
2018-06-13T00:59:00.761Z,5.20
2018-06-13T01:01:29.240Z,5.17
2018-06-13T01:03:57.674Z,5.90
2018-06-13T01:06:26.711Z,5.60
2018-06-13T01:08:55.123Z,5.50
2018-06-13T01:11:23.596Z,6.77
2018-06-13T01:13:52.022Z,5.20
2018-06-13T01:16:20.475Z,5.80
2018-06-13T01:18:49.068Z,14.73
2018-06-13T01:21:17.716Z,5.57
2018-06-13T01:23:46.140Z,5.53
2018-06-13T01:26:14.583Z,7.03
2018-06-13T01:28:43.023Z,6.10
2018-06-13T01:31:11.509Z,7.27
2018-06-13T01:33:39.889Z,7.67
2018-06-13T01:36:08.374Z,8.73
2018-06-13T01:38:36.838Z,7.83
2018-06-13T01:41:05.318Z,10.40
2018-06-13T01:43:34.263Z,9.30
2018-06-13T01:46:02.680Z,11.50
2018-06-13T01:48:31.096Z,10.33
2018-06-13T01:51:00.030Z,12.20
2018-06-13T01:53:29.485Z,12.37
2018-06-13T01:55:58.027Z,12.40
2018-06-13T01:58:26.469Z,13.73
2018-06-13T02:00:55.251Z,12.00
2018-06-13T02:03:23.676Z,12.63
2018-06-13T02:05:52.128Z,13.13
2018-06-13T02:08:20.544Z,14.07
2018-06-13T02:10:48.959Z,13.83
2018-06-13T02:13:17.411Z,13.13
2018-06-13T02:15:45.865Z,14.33
2018-06-13T02:18:14.291Z,12.33
2018-06-13T02:20:42.711Z,13.40
2018-06-13T02:23:11.175Z,12.13
2018-06-13T02:25:39.604Z,12.60
2018-06-13T02:28:08.025Z,12.73
2018-06-13T02:30:36.465Z,13.97
2018-06-13T02:33:05.100Z,12.87
2018-06-13T02:35:33.523Z,13.60
2018-06-13T02:38:02.010Z,12.10
2018-06-13T02:40:30.539Z,13.23
2018-06-13T02:42:58.999Z,11.97
2018-06-13T02:45:27.408Z,12.90
2018-06-13T02:47:55.844Z,12.60
2018-06-13T02:50:24.320Z,10.73
2018-06-13T02:52:52.938Z,68.17
2018-06-13T02:55:21.468Z,11.80
2018-06-13T02:57:49.915Z,10.23
2018-06-13T03:00:18.324Z,9.10
2018-06-13T03:02:46.755Z,8.73
2018-06-13T03:05:15.264Z,9.37
2018-06-13T03:07:43.710Z,8.70
2018-06-13T03:10:12.379Z,9.17
2018-06-13T03:12:40.791Z,9.03
2018-06-13T03:15:09.224Z,9.67
2018-06-13T03:17:37.726Z,10.47
2018-06-13T03:20:06.162Z,9.90
2018-06-13T03:22:34.556Z,9.43
2018-06-13T03:25:03.438Z,10.47
2018-06-13T03:27:31.840Z,11.40
2018-06-13T03:30:00.496Z,10.50
2018-06-13T03:32:29.042Z,12.13
2018-06-13T03:34:57.447Z,13.43
2018-06-13T03:37:26.119Z,13.03
2018-06-13T03:39:54.791Z,14.73
2018-06-13T03:42:23.200Z,16.10
2018-06-13T03:44:51.615Z,15.17
2018-06-13T03:47:20.043Z,14.93
2018-06-13T03:49:48.496Z,16.10
2018-06-13T03:52:16.927Z,17.07
2018-06-13T03:54:45.375Z,17.10
2018-06-13T03:57:13.860Z,16.90
2018-06-13T03:59:42.262Z,15.00
2018-06-13T04:02:10.696Z,13.80
2018-06-13T04:04:39.192Z,13.80
2018-06-13T04:07:07.672Z,14.40
2018-06-13T04:11:05.470Z,14.87
2018-06-13T04:13:33.935Z,12.03
2018-06-13T04:16:02.461Z,10.10
2018-06-13T04:18:30.872Z,10.57
2018-06-13T04:20:59.325Z,10.87
2018-06-13T04:23:27.760Z,10.20
2018-06-13T04:25:56.212Z,10.30
2018-06-13T04:28:24.646Z,12.27
2018-06-13T04:30:54.272Z,10.30
2018-06-13T04:33:23.012Z,9.80
2018-06-13T04:35:51.437Z,12.13
2018-06-13T04:38:20.210Z,11.83
2018-06-13T04:40:48.670Z,11.93
2018-06-13T04:43:17.110Z,13.67
2018-06-13T04:45:45.859Z,11.70
2018-06-13T04:48:14.274Z,11.67
2018-06-13T04:50:42.988Z,12.43
2018-06-13T04:53:11.358Z,16.90
2018-06-13T04:55:39.760Z,13.90
2018-06-13T04:58:08.195Z,21.03
2018-06-13T05:00:36.731Z,18.43
2018-06-13T05:03:05.205Z,14.60
2018-06-13T05:05:33.684Z,14.50
2018-06-13T05:08:02.103Z,14.13
2018-06-13T05:10:30.557Z,13.50
2018-06-13T05:12:59.022Z,13.87
2018-06-13T05:15:27.510Z,13.10
2018-06-13T05:17:55.930Z,14.07
2018-06-13T05:20:24.382Z,12.47
2018-06-13T05:22:52.819Z,14.30
2018-06-13T05:25:21.252Z,13.80
2018-06-13T05:27:49.399Z,11.60
2018-06-13T05:30:17.827Z,13.47
2018-06-13T05:32:46.255Z,12.20
2018-06-13T05:35:14.668Z,10.03
2018-06-13T05:37:43.087Z,10.37
2018-06-13T05:40:11.522Z,11.03
2018-06-13T05:42:39.949Z,10.53
2018-06-13T05:45:08.416Z,11.33
2018-06-13T05:47:36.863Z,10.53
2018-06-13T05:50:05.286Z,10.83
2018-06-13T05:52:33.727Z,11.87
2018-06-13T05:55:02.244Z,11.50
2018-06-13T05:57:30.616Z,12.03
2018-06-13T05:59:59.011Z,13.40
2018-06-13T06:02:27.440Z,9.03
2018-06-13T06:04:55.827Z,9.60
2018-06-13T06:07:24.237Z,8.63
2018-06-13T06:09:52.668Z,8.07
2018-06-13T06:12:21.091Z,6.67
2018-06-13T06:14:49.519Z,7.83
2018-06-13T06:17:18.054Z,6.60
2018-06-13T06:19:46.438Z,10.90
2018-06-13T06:22:14.845Z,6.80
2018-06-13T06:24:43.280Z,7.43
2018-06-13T06:27:11.713Z,7.87
2018-06-13T06:29:40.120Z,8.83
2018-06-13T06:32:08.621Z,7.63
2018-06-13T06:34:37.115Z,8.37
2018-06-13T06:37:05.521Z,7.20
2018-06-13T06:39:33.976Z,6.60
2018-06-13T06:42:02.495Z,7.50
2018-06-13T06:44:30.893Z,5.87
2018-06-13T06:46:59.379Z,7.27
2018-06-13T06:49:27.784Z,8.17
2018-06-13T06:51:56.192Z,8.00
2018-06-13T06:54:24.685Z,4.33
2018-06-13T06:56:53.107Z,3.30
2018-06-13T06:59:21.543Z,2.80
2018-06-13T07:01:49.960Z,2.70
2018-06-13T07:04:18.543Z,2.70
2018-06-13T07:06:46.972Z,2.17
2018-06-13T07:09:15.433Z,2.27
2018-06-13T07:11:43.919Z,2.90
2018-06-13T07:14:12.368Z,4.00
2018-06-13T07:16:40.775Z,2.63
2018-06-13T07:19:09.203Z,2.70
2018-06-13T07:21:37.643Z,2.80
2018-06-13T07:24:06.204Z,1.73
2018-06-13T07:26:34.631Z,2.20
2018-06-13T07:29:03.086Z,2.20
2018-06-13T07:31:31.536Z,1.97
2018-06-13T07:33:59.983Z,2.10
2018-06-13T07:36:28.375Z,1.70
2018-06-13T07:38:56.786Z,1.57
2018-06-13T07:41:25.205Z,2.20
2018-06-13T07:43:53.868Z,2.90
2018-06-13T07:46:22.260Z,1.80
2018-06-13T07:48:50.672Z,2.50
2018-06-13T07:51:19.120Z,1.93
2018-06-13T07:53:47.547Z,2.57
2018-06-13T07:56:15.959Z,2.93
2018-06-13T07:58:44.363Z,2.20
2018-06-13T08:01:12.774Z,2.73
2018-06-13T08:03:41.227Z,3.13
2018-06-13T08:06:09.702Z,2.53
2018-06-13T08:08:38.327Z,2.50
2018-06-13T08:11:07.009Z,2.33
2018-06-13T08:13:35.624Z,2.77
2018-06-13T08:16:04.054Z,3.10
2018-06-13T08:18:32.451Z,2.97
2018-06-13T08:21:01.152Z,2.97
2018-06-13T08:23:29.841Z,2.80
2018-06-13T08:25:58.440Z,2.73
2018-06-13T08:28:26.911Z,2.40
2018-06-13T08:30:55.356Z,2.70
2018-06-13T08:33:23.807Z,3.10
2018-06-13T08:35:52.195Z,2.20
2018-06-13T08:38:20.627Z,1.93
2018-06-13T08:40:49.096Z,2.93
2018-06-13T08:43:17.557Z,2.30
2018-06-13T08:45:46.204Z,2.57
2018-06-13T08:48:14.636Z,2.67
2018-06-13T08:50:43.082Z,2.40
2018-06-13T08:53:11.529Z,2.10
2018-06-13T08:55:40.016Z,1.70
2018-06-13T08:58:08.446Z,1.63
2018-06-13T09:00:36.866Z,1.70
2018-06-13T09:03:05.347Z,2.00
2018-06-13T09:05:33.843Z,2.27
2018-06-13T09:08:02.263Z,1.53
2018-06-13T09:10:30.678Z,1.97
2018-06-13T09:12:59.631Z,1.70
2018-06-13T09:15:28.049Z,1.60
2018-06-13T09:17:56.416Z,1.20
2018-06-13T09:20:24.875Z,1.90
2018-06-13T09:22:53.334Z,1.47
2018-06-13T09:25:21.756Z,1.57
2018-06-13T09:27:50.184Z,1.73
2018-06-13T09:30:18.592Z,1.37
2018-06-13T09:32:47.027Z,2.27
2018-06-13T09:35:15.448Z,1.50
2018-06-13T09:37:43.965Z,1.40
2018-06-13T09:40:12.323Z,1.43
2018-06-13T09:42:40.753Z,1.57
2018-06-13T09:45:09.365Z,1.40
2018-06-13T09:47:37.821Z,1.97
2018-06-13T09:50:06.310Z,1.30
2018-06-13T09:52:34.740Z,1.63
2018-06-13T09:55:03.162Z,1.10
2018-06-13T09:57:31.595Z,1.57
2018-06-13T10:00:05.286Z,1.20
2018-06-13T10:02:37.336Z,1.53
2018-06-13T10:05:06.698Z,1.77
2018-06-13T10:07:35.130Z,1.77
2018-06-13T10:10:03.595Z,1.30
2018-06-13T10:12:32.040Z,1.37
2018-06-13T10:15:00.477Z,1.30
2018-06-13T10:17:28.855Z,1.37
2018-06-13T10:19:57.281Z,1.43
2018-06-13T10:22:25.663Z,1.37
2018-06-13T10:24:54.068Z,1.37
2018-06-13T10:27:27.654Z,1.50
2018-06-13T10:29:56.102Z,1.23
2018-06-13T10:32:24.507Z,1.10
2018-06-13T10:34:52.915Z,1.00
2018-06-13T10:37:21.311Z,1.27
2018-06-13T10:39:49.934Z,1.50
2018-06-13T10:42:18.357Z,0.93
2018-06-13T10:44:46.932Z,1.40
2018-06-13T10:47:15.352Z,1.03
2018-06-13T10:49:43.776Z,1.10
2018-06-13T10:52:12.493Z,1.23
2018-06-13T10:54:41.026Z,1.30
2018-06-13T10:57:09.411Z,1.40
2018-06-13T10:59:37.819Z,1.10
2018-06-13T11:02:06.659Z,1.00
2018-06-13T11:04:35.067Z,1.30
2018-06-13T11:07:03.517Z,1.40
2018-06-13T11:09:31.923Z,1.47
2018-06-13T11:12:00.307Z,1.43
2018-06-13T11:14:28.756Z,1.43
2018-06-13T11:16:57.204Z,1.33
2018-06-13T11:19:25.672Z,1.13
2018-06-13T11:21:54.079Z,1.20
2018-06-13T11:24:22.500Z,1.20
2018-06-13T11:26:50.947Z,1.57
2018-06-13T11:29:19.365Z,1.50
2018-06-13T11:31:48.657Z,1.23
2018-06-13T11:34:17.084Z,1.33
2018-06-13T11:36:45.448Z,1.30
2018-06-13T11:39:13.884Z,1.27
2018-06-13T11:41:42.292Z,1.17
2018-06-13T11:44:10.727Z,1.30
2018-06-13T11:46:39.371Z,1.00
2018-06-13T11:49:08.377Z,1.10
2018-06-13T11:51:37.554Z,1.13
2018-06-13T11:54:06.016Z,1.10
2018-06-13T11:56:34.456Z,1.27
2018-06-13T11:59:02.912Z,0.80
2018-06-13T12:01:31.348Z,0.90
2018-06-13T12:03:59.783Z,0.90
2018-06-13T12:06:28.687Z,1.07
2018-06-13T12:08:57.133Z,0.97
2018-06-13T12:11:25.558Z,1.10
2018-06-13T12:13:53.960Z,0.97
2018-06-13T12:16:22.385Z,1.30
2018-06-13T12:18:50.831Z,1.10
2018-06-13T12:21:19.347Z,1.00
2018-06-13T12:23:47.749Z,1.27
2018-06-13T12:26:16.156Z,1.50
2018-06-13T12:28:44.567Z,1.10
2018-06-13T12:31:13.056Z,1.10
2018-06-13T12:33:41.715Z,1.00
2018-06-13T12:36:10.400Z,1.20
2018-06-13T12:40:08.297Z,1.20
2018-06-13T12:42:36.747Z,1.23
2018-06-13T12:45:05.395Z,1.47
2018-06-13T12:47:33.824Z,1.60
2018-06-13T12:50:02.437Z,1.40
2018-06-13T12:52:30.867Z,1.30
2018-06-13T12:54:59.588Z,1.43
2018-06-13T12:57:27.998Z,1.87
2018-06-13T12:59:56.444Z,1.53
2018-06-13T13:02:24.836Z,2.13
2018-06-13T13:04:53.365Z,2.33
2018-06-13T13:07:21.781Z,2.20
2018-06-13T13:09:50.211Z,1.60
2018-06-13T13:12:18.649Z,2.10
2018-06-13T13:14:47.064Z,1.90
2018-06-13T13:17:15.487Z,1.90
2018-06-13T13:19:43.918Z,2.13
2018-06-13T13:22:12.604Z,1.90
2018-06-13T13:24:41.051Z,2.47
2018-06-13T13:27:09.485Z,3.13
2018-06-13T13:29:37.911Z,2.43
2018-06-13T13:32:06.574Z,2.70
2018-06-13T13:34:35.184Z,2.90
2018-06-13T13:37:03.590Z,2.30
2018-06-13T13:39:32.255Z,3.37
2018-06-13T13:42:00.704Z,2.83
2018-06-13T13:44:29.119Z,2.73
2018-06-13T13:46:57.572Z,2.83
2018-06-13T13:49:26.091Z,2.70
2018-06-13T13:51:54.718Z,3.07
2018-06-13T13:54:23.162Z,2.93
2018-06-13T13:56:51.600Z,2.90
2018-06-13T13:59:20.183Z,2.77
2018-06-13T14:01:48.607Z,2.17
2018-06-13T14:04:17.000Z,2.90
2018-06-13T14:06:45.416Z,3.43
2018-06-13T14:09:13.846Z,2.63
2018-06-13T14:11:42.255Z,3.27
2018-06-13T14:14:10.711Z,4.37
2018-06-13T14:16:39.131Z,5.63
2018-06-13T14:19:07.785Z,3.77
2018-06-13T14:21:36.206Z,4.43
2018-06-13T14:24:04.673Z,7.60
2018-06-13T14:26:33.136Z,5.33
2018-06-13T14:29:01.528Z,7.00
2018-06-13T14:31:29.955Z,4.80
2018-06-13T14:33:58.489Z,4.47
2018-06-13T14:36:26.864Z,3.27
2018-06-13T14:38:55.578Z,4.20
2018-06-13T14:41:23.999Z,3.33
2018-06-13T14:43:52.647Z,4.20
2018-06-13T14:46:21.074Z,3.73
2018-06-13T14:48:49.735Z,3.93
2018-06-13T14:51:18.143Z,4.57
2018-06-13T14:53:46.631Z,5.13
2018-06-13T14:56:20.236Z,3.93
2018-06-13T14:58:48.650Z,4.20
2018-06-13T15:01:17.071Z,5.27
2018-06-13T15:03:45.499Z,5.73
2018-06-13T15:06:13.984Z,5.73
2018-06-13T15:08:42.406Z,6.33
2018-06-13T15:11:10.832Z,5.87
2018-06-13T15:13:39.266Z,6.40
2018-06-13T15:16:07.701Z,6.60
2018-06-13T15:18:36.144Z,6.03
2018-06-13T15:21:04.604Z,6.40
2018-06-13T15:23:33.036Z,5.67
2018-06-13T15:26:01.715Z,5.57
2018-06-13T15:28:30.189Z,7.30
2018-06-13T15:30:58.918Z,5.30
2018-06-13T15:33:27.370Z,9.30
2018-06-13T15:35:56.058Z,6.40
2018-06-13T15:38:24.919Z,6.00
2018-06-13T15:40:53.361Z,5.73
2018-06-13T15:43:21.940Z,6.63
2018-06-13T15:45:50.375Z,6.30
2018-06-13T15:48:18.779Z,6.30
2018-06-13T15:50:47.222Z,4.87
2018-06-13T15:53:15.615Z,4.40
2018-06-13T15:55:44.142Z,4.70
2018-06-13T15:58:12.532Z,5.37
2018-06-13T16:00:41.099Z,4.40
2018-06-13T16:03:09.556Z,4.97
2018-06-13T16:05:38.005Z,114.80
2018-06-13T16:08:06.451Z,5.90
2018-06-13T16:10:34.935Z,5.37
2018-06-13T16:13:03.371Z,5.50
2018-06-13T16:15:31.827Z,6.33
2018-06-13T16:18:00.555Z,6.60
2018-06-13T16:20:29.409Z,5.33
2018-06-13T16:22:57.883Z,8.20
2018-06-13T16:25:26.760Z,6.00
2018-06-13T16:27:55.196Z,7.10
2018-06-13T16:30:23.659Z,5.47
2018-06-13T16:32:52.435Z,6.03
2018-06-13T16:35:20.909Z,5.77
2018-06-13T16:37:49.328Z,4.70
2018-06-13T16:40:17.773Z,5.40
2018-06-13T16:42:46.255Z,3.57
2018-06-13T16:45:14.680Z,3.83
2018-06-13T16:47:43.134Z,3.57
2018-06-13T16:50:22.815Z,3.90
2018-06-13T16:53:11.159Z,4.67
2018-06-13T16:55:39.693Z,4.20
2018-06-13T16:58:08.105Z,4.30
2018-06-13T17:00:36.533Z,3.87
2018-06-13T17:03:04.970Z,5.10
2018-06-13T17:05:33.411Z,3.70
2018-06-13T17:08:01.841Z,3.83
2018-06-13T17:10:30.269Z,3.40
2018-06-13T17:12:58.879Z,3.53
2018-06-13T17:15:27.367Z,3.70
2018-06-13T17:17:55.792Z,2.80
2018-06-13T17:20:24.521Z,4.03
2018-06-13T17:22:53.082Z,3.63
2018-06-13T17:25:21.572Z,3.10
2018-06-13T17:27:50.333Z,3.40
2018-06-13T17:30:18.727Z,5.30
2018-06-13T17:32:47.323Z,4.30
2018-06-13T17:35:15.789Z,3.10
2018-06-13T17:37:44.533Z,3.50
2018-06-13T17:40:13.102Z,3.97
2018-06-13T17:42:41.894Z,4.40
2018-06-13T17:45:10.907Z,3.70
2018-06-13T17:47:39.338Z,5.00
2018-06-13T17:50:07.736Z,9.70
2018-06-13T17:52:36.195Z,6.40
2018-06-13T17:55:05.005Z,5.03
2018-06-13T17:57:33.478Z,3.77
2018-06-13T18:00:02.226Z,3.97
2018-06-13T18:02:30.705Z,4.23
2018-06-13T18:04:59.171Z,3.50
2018-06-13T18:07:27.604Z,4.03
2018-06-13T18:09:56.047Z,3.70
2018-06-13T18:12:24.476Z,15.30
2018-06-13T18:14:53.158Z,7.00
2018-06-13T18:17:21.692Z,7.47
2018-06-13T18:19:50.151Z,4.50
2018-06-13T18:22:18.673Z,4.73
2018-06-13T18:24:47.087Z,4.70
2018-06-13T18:27:15.559Z,5.37
2018-06-13T18:29:44.049Z,4.53
2018-06-13T18:32:12.556Z,4.93
2018-06-13T18:34:41.008Z,4.60
2018-06-13T18:37:09.488Z,7.43
2018-06-13T18:39:37.897Z,6.30
2018-06-13T18:42:06.431Z,7.47
2018-06-13T18:44:35.494Z,5.60
2018-06-13T18:47:04.180Z,5.87
2018-06-13T18:49:32.642Z,5.50
2018-06-13T18:52:01.348Z,5.93
2018-06-13T18:54:30.528Z,5.80
2018-06-13T18:56:58.937Z,7.37
2018-06-13T18:59:27.755Z,6.67
2018-06-13T19:01:56.617Z,6.67
2018-06-13T19:04:25.172Z,7.07
2018-06-13T19:06:53.739Z,6.50
2018-06-13T19:09:22.200Z,8.33
2018-06-13T19:11:50.631Z,8.80
2018-06-13T19:14:19.031Z,8.83
2018-06-13T19:16:47.709Z,8.47
2018-06-13T19:19:16.420Z,6.97
2018-06-13T19:21:44.842Z,7.60
2018-06-13T19:24:13.326Z,26.63
2018-06-13T19:26:41.764Z,10.10
2018-06-13T19:29:10.235Z,8.00
2018-06-13T19:31:38.708Z,6.90
2018-06-13T19:34:07.169Z,10.03
2018-06-13T19:36:35.625Z,10.63
2018-06-13T19:39:06.008Z,10.10
2018-06-13T19:41:34.430Z,9.80
2018-06-13T19:44:03.076Z,10.77
2018-06-13T19:46:31.488Z,10.13
2018-06-13T19:48:59.908Z,10.60
2018-06-13T19:51:28.597Z,11.27
2018-06-13T19:54:02.429Z,10.40
2018-06-13T19:56:31.999Z,8.30
2018-06-13T19:59:00.659Z,7.60
2018-06-13T20:01:29.096Z,7.60
2018-06-13T20:04:02.963Z,10.33
2018-06-13T20:06:31.696Z,15.73
2018-06-13T20:09:00.121Z,12.07
2018-06-13T20:11:28.591Z,12.23
2018-06-13T20:14:02.453Z,12.23
2018-06-13T20:16:47.397Z,13.00
2018-06-13T20:19:21.195Z,15.23
2018-06-13T20:21:49.659Z,14.30
2018-06-13T20:24:18.453Z,16.60
2018-06-13T20:26:52.667Z,14.27
2018-06-13T20:29:26.686Z,13.80
2018-06-13T20:31:55.156Z,15.20
2018-06-13T20:34:23.609Z,13.07
2018-06-13T20:36:52.183Z,12.33
2018-06-13T20:39:21.203Z,14.70
2018-06-13T20:41:50.089Z,15.77
2018-06-13T20:44:18.566Z,15.90
2018-06-13T20:46:47.031Z,15.53
2018-06-13T20:49:15.458Z,15.40
2018-06-13T20:51:43.895Z,18.40
2018-06-13T20:54:12.343Z,18.93
2018-06-13T20:56:40.817Z,19.43
2018-06-13T20:59:09.261Z,17.63
2018-06-13T21:01:37.743Z,17.40
2018-06-13T21:04:06.206Z,95.80
2018-06-13T21:06:34.729Z,18.43
2018-06-13T21:09:03.271Z,17.20
2018-06-13T21:11:31.783Z,17.10
2018-06-13T21:14:00.212Z,19.27
2018-06-13T21:16:28.632Z,17.20
2018-06-13T21:18:57.153Z,14.97
2018-06-13T21:21:25.560Z,17.50
2018-06-13T21:23:53.967Z,16.83
2018-06-13T21:26:22.414Z,16.30
2018-06-13T21:28:50.834Z,19.90
2018-06-13T21:31:19.935Z,19.10
2018-06-13T21:33:48.628Z,21.30
2018-06-13T21:36:17.092Z,21.10
2018-06-13T21:38:45.534Z,19.07
2018-06-13T21:41:13.984Z,20.50
2018-06-13T21:43:42.432Z,20.43
2018-06-13T21:46:10.875Z,19.07
2018-06-13T21:48:39.320Z,20.60
2018-06-13T21:51:07.772Z,22.40
2018-06-13T21:53:36.424Z,22.77
2018-06-13T21:56:04.876Z,23.70
2018-06-13T21:58:33.451Z,22.10
2018-06-13T22:01:01.881Z,25.13
2018-06-13T22:03:30.307Z,24.13
2018-06-13T22:05:58.746Z,28.67
2018-06-13T22:08:27.260Z,30.23
2018-06-13T22:10:55.698Z,31.47
2018-06-13T22:13:24.159Z,32.13
2018-06-13T22:15:52.617Z,31.50
2018-06-13T22:18:21.044Z,29.40
2018-06-13T22:20:49.480Z,33.37
2018-06-13T22:23:17.942Z,34.57
2018-06-13T22:25:46.403Z,32.70
2018-06-13T22:28:15.245Z,32.57
2018-06-13T22:30:43.689Z,32.40
2018-06-13T22:33:12.134Z,33.97
2018-06-13T22:35:40.601Z,35.70
2018-06-13T22:38:09.068Z,36.67
2018-06-13T22:40:37.765Z,35.93
2018-06-13T22:43:06.239Z,38.80
2018-06-13T22:45:34.672Z,36.13
2018-06-13T22:48:03.193Z,39.13
2018-06-13T22:50:31.656Z,36.87
2018-06-13T22:53:00.132Z,33.00
2018-06-13T22:55:28.586Z,33.00
2018-06-13T22:57:57.010Z,31.63
2018-06-13T23:00:36.424Z,39.70
2018-06-13T23:03:04.980Z,37.20
2018-06-13T23:05:33.385Z,36.60
2018-06-13T23:08:01.935Z,35.43
2018-06-13T23:10:30.629Z,37.20
2018-06-13T23:12:59.056Z,37.50
2018-06-13T23:15:27.504Z,37.93
2018-06-13T23:17:55.913Z,37.03
2018-06-13T23:20:24.367Z,42.13
2018-06-13T23:22:53.021Z,37.90
2018-06-13T23:25:21.440Z,38.10
2018-06-13T23:27:49.906Z,38.60
2018-06-13T23:30:18.273Z,43.53
2018-06-13T23:32:47.001Z,37.60
2018-06-13T23:35:15.422Z,40.83
2018-06-13T23:37:43.919Z,41.23
2018-06-13T23:40:12.346Z,43.13
2018-06-13T23:42:40.756Z,38.93
2018-06-13T23:45:09.224Z,38.20
2018-06-13T23:47:37.675Z,36.47
2018-06-13T23:50:06.138Z,38.90
2018-06-13T23:52:34.589Z,37.23
2018-06-13T23:55:03.011Z,36.13
2018-06-13T23:57:31.478Z,35.87
2018-06-13T23:59:59.942Z,37.40
